Northeast Coast - north of Cape St. John: Past 24 Hour Conditions

 

St. John's Int'l Airport

11:30 AM NDT 24 April 2014
This table is a summary of hourly weather conditions for the past 24 hours.
Date / Time
(NDT)
Wind(knots) Conditions Visibility(km) Pressure(kPa) Air tempC) Relative humidity(%) Dew pointC) Wind Chill
24 April 2014
11:30 NE 18 gust 24 Light Rain 24 100.7 0 90 -1 *
10:30 NE 17 gust 22 Cloudy 24 100.7 0 92 -1 -7
9:30 NE 17 gust 25 Cloudy 24 100.7 0 92 -1 -7
8:30 NE 19 gust 26 Cloudy 24 100.6 0 92 -2 -8
7:30 NE 18 gust 24 Cloudy 24 100.6 -1 92 -2 -7
6:30 NE 17 gust 26 Mostly Cloudy 24 100.5 -1 93 -2 -8
5:30 NE 19 Light Snowshower 19 100.6 -1 93 -2 -8
4:30 NE 16 gust 22 Light Snowshower 19 100.6 -1 94 -2 -8
3:30 NE 14 gust 20 Cloudy 24 100.6 -1 93 -2 -7
2:30 NE 15 gust 24 Mostly Cloudy 24 100.7 -1 92 -2 -7
1:30 NE 18 gust 25 Light Snowshower 24 100.7 -1 90 -2 -8
0:30 ENE 21 gust 28 Mostly Cloudy 24 100.7 -1 90 -2 -8
23 April 2014
23:30 ENE 24 gust 32 Mostly Cloudy 24 100.7 -1 86 -3 -9
22:30 ENE 18 gust 27 Mostly Cloudy 24 100.8 -1 81 -4 -8
21:30 ENE 18 gust 24 Mostly Cloudy 24 100.8 -1 85 -4 -9
20:30 ENE 16 gust 25 Mist 5 100.8 -1 99 -1 -8
19:30 ENE 16 gust 22 Ice Fog 0.4 100.8 -1 99 -1 -8
18:30 ENE 15 gust 20 Ice Fog 0.2 100.9 -1 99 -1 -7
17:30 E 18 Ice Fog 0.2 100.9 -1 99 -1 -8
16:30 ENE 13 gust 18 Ice Fog 0.2 100.9 -1 99 -1 -7
15:30 ENE 13 gust 18 Ice Fog 0.2 101.0 0 99 0 -6
14:30 E 13 gust 19 Fog 0.4 101.1 0 99 0 *
13:30 E 14 Ice Fog 0.2 101.1 0 99 0 -6
12:30 ESE 14 Ice Fog 0.2 101.2 0 99 0 -6
11:30 E 11 Ice Fog 0.2 101.2 0 99 0 -6
 
Map of Atlantic - Newfoundland marine weather areas Southwestern Grand Banks - 44138 Banquereau - 44139 Tail of the Bank - 44140 Nickerson Bank - 44251 Northeast Burgeo Bank - 44255 Blanc-Sablon Airport Cap Whittle Chevery Natashquan Airport Heath Point Miscou Island Grand Étang Ingonish Beach North Mountain St.Paul Island J.A. Douglas McCurdy Sydney Airport Charlottetown Airport East Point North Cape Argentia Bonavista Burgeo Cape Race Corner Brook Daniel's Harbour Englee Ferolle Point La Scie Port aux Basques Rocky Harbour Sagona Island St. Anthony Airport St. John's Int'l Airport St. Lawrence Stephenville Airport Twillingate Winterland Wreckhouse Cartwright Airport Mary's Harbour Grates Cove Pool's Island Marticot Island Long Pond Îles de la Madeleine Airport
Legend: buoyBuoy land stationLand Station